Time;durP1;ratioP1;P1;durP2;ratioP2;P2;SDS_P1;SDS_P2;PMS_P1;PMS_P2;Temp;Humidity;BMP_temperature;BMP_pressure;BME280_temperature;BME280_humidity;BME280_pressure;Samples;Min_cycle;Max_cycle;Signal;HPM_P1;HPM_P2
2022/11/19 00:00:39;;;;;;;34.15;17.08;;;-0.60;99.90;;;;;;4961714;28;20098;-57
2022/11/19 00:03:05;;;;;;;40.63;18.50;;;-0.70;99.90;;;;;;4962382;28;20126;-58
2022/11/19 00:05:31;;;;;;;38.63;18.27;;;-0.70;99.90;;;;;;4971421;28;20105;-58
2022/11/19 00:07:56;;;;;;;40.13;19.05;;;-0.70;99.90;;;;;;4970957;28;20111;-62
2022/11/19 00:10:22;;;;;;;34.90;17.33;;;-0.70;99.90;;;;;;4954092;28;20498;-63
2022/11/19 00:12:53;;;;;;;41.33;19.55;;;-0.70;99.90;;;;;;4953861;28;20074;-64
2022/11/19 00:15:19;;;;;;;36.92;17.05;;;-0.70;99.90;;;;;;4971085;28;20073;-64
2022/11/19 00:17:45;;;;;;;31.85;15.77;;;-0.80;99.90;;;;;;4970970;28;20054;-61
2022/11/19 00:20:11;;;;;;;32.22;16.45;;;-0.70;99.90;;;;;;4970834;28;20031;-62
2022/11/19 00:22:36;;;;;;;32.60;16.98;;;-0.70;99.90;;;;;;4970763;28;20035;-63
2022/11/19 00:25:03;;;;;;;34.47;15.57;;;-0.70;99.90;;;;;;4953536;28;20023;-62
2022/11/19 00:27:30;;;;;;;29.77;15.60;;;-0.70;99.90;;;;;;4970985;28;20070;-61
2022/11/19 00:29:55;;;;;;;27.73;15.00;;;-0.70;99.90;;;;;;4970914;28;20034;-61
2022/11/19 00:32:21;;;;;;;29.48;14.27;;;-0.80;99.90;;;;;;4970741;28;20035;-56
2022/11/19 00:34:47;;;;;;;29.73;14.40;;;-0.80;99.90;;;;;;4985048;28;20054;-55
2022/11/19 00:37:12;;;;;;;29.15;14.65;;;-0.90;99.90;;;;;;4990395;28;20404;-59
2022/11/19 00:39:38;;;;;;;34.60;16.08;;;-0.90;99.90;;;;;;4991304;28;20507;-60
2022/11/19 00:42:03;;;;;;;26.15;13.93;;;-0.80;99.90;;;;;;4994149;28;20030;-64
2022/11/19 00:44:29;;;;;;;32.72;13.77;;;-0.80;99.90;;;;;;4994236;28;20026;-62
2022/11/19 00:46:55;;;;;;;28.77;14.00;;;-0.80;99.90;;;;;;4994010;28;20034;-65
2022/11/19 00:49:20;;;;;;;26.90;13.50;;;-0.80;99.90;;;;;;4990193;28;20950;-61
2022/11/19 00:51:46;;;;;;;33.42;15.38;;;-0.80;99.90;;;;;;4974594;28;20101;-55
2022/11/19 00:54:11;;;;;;;28.45;15.07;;;-0.80;99.90;;;;;;4976885;28;20061;-56
2022/11/19 00:56:37;;;;;;;27.80;13.60;;;-0.80;99.90;;;;;;4993993;28;20046;-57
2022/11/19 00:59:03;;;;;;;29.90;13.60;;;-0.80;99.90;;;;;;4993995;28;20386;-62
2022/11/19 01:01:28;;;;;;;28.52;13.55;;;-0.80;99.90;;;;;;4993972;28;20045;-62
2022/11/19 01:03:54;;;;;;;25.77;13.02;;;-0.80;99.90;;;;;;4993913;28;20026;-64
2022/11/19 01:06:22;;;;;;;24.33;12.75;;;-0.80;99.90;;;;;;4993835;28;20366;-64
2022/11/19 01:08:49;;;;;;;27.27;12.60;;;-0.70;99.90;;;;;;4994156;28;20022;-61
2022/11/19 01:11:22;;;;;;;31.35;13.75;;;-0.80;99.90;;;;;;4994083;28;20022;-62
2022/11/19 01:13:48;;;;;;;29.13;14.15;;;-0.70;99.90;;;;;;4993600;28;20030;-58
2022/11/19 01:16:17;;;;;;;28.13;14.48;;;-0.80;99.90;;;;;;4993185;28;20108;-59
2022/11/19 01:18:45;;;;;;;25.95;13.90;;;-0.80;99.90;;;;;;4993427;28;20497;-59
2022/11/19 01:21:12;;;;;;;30.35;13.98;;;-0.70;99.90;;;;;;4992244;28;20026;-58
2022/11/19 01:23:39;;;;;;;26.70;12.82;;;-0.70;99.90;;;;;;4993329;28;20022;-63
2022/11/19 01:26:05;;;;;;;27.25;13.65;;;-0.80;99.90;;;;;;4993556;28;20092;-64
2022/11/19 01:28:31;;;;;;;27.42;14.50;;;-0.80;99.90;;;;;;4993346;28;20030;-63
2022/11/19 01:30:58;;;;;;;30.00;14.23;;;-0.80;99.90;;;;;;4993340;28;20034;-66
2022/11/19 01:33:24;;;;;;;29.90;15.35;;;-0.80;99.90;;;;;;4992725;28;20560;-57
2022/11/19 01:35:58;;;;;;;29.42;15.00;;;-0.80;99.90;;;;;;4993332;28;20092;-57
2022/11/19 01:38:25;;;;;;;27.60;14.15;;;-0.90;99.90;;;;;;4993369;28;20480;-64
2022/11/19 01:40:50;;;;;;;28.20;13.03;;;-0.90;99.90;;;;;;4993198;28;20080;-62
2022/11/19 01:43:16;;;;;;;27.15;13.65;;;-0.90;99.90;;;;;;4993059;28;20097;-66
2022/11/19 01:45:47;;;;;;;28.70;15.13;;;-0.90;99.90;;;;;;4992925;28;20033;-65
2022/11/19 01:48:12;;;;;;;27.27;14.63;;;-1.00;99.90;;;;;;4993236;28;20156;-55
2022/11/19 01:50:43;;;;;;;25.85;14.27;;;-0.90;99.90;;;;;;4992848;28;20113;-57
2022/11/19 01:53:09;;;;;;;27.02;13.93;;;-0.90;99.90;;;;;;4992611;28;20496;-62
2022/11/19 01:55:36;;;;;;;25.83;13.23;;;-0.90;99.90;;;;;;4978353;28;20039;-59
2022/11/19 01:58:03;;;;;;;30.27;14.10;;;-0.90;99.90;;;;;;4972269;28;20166;-62
2022/11/19 02:00:29;;;;;;;29.10;14.40;;;-0.90;99.90;;;;;;4956171;28;20022;-57
2022/11/19 02:02:54;;;;;;;24.88;13.50;;;-0.90;99.90;;;;;;4973239;28;20046;-64
2022/11/19 02:05:21;;;;;;;27.08;13.05;;;-0.90;99.90;;;;;;4973391;28;20030;-64
2022/11/19 02:07:53;;;;;;;26.27;13.40;;;-1.00;99.90;;;;;;4973455;28;20035;-58
2022/11/19 02:10:20;;;;;;;23.90;12.77;;;-1.00;99.90;;;;;;4980301;28;20661;-56
2022/11/19 02:13:21;;;;;;;23.70;13.07;;;-1.00;99.90;;;;;;4992732;28;20034;-60
2022/11/19 02:16:03;;;;;;;29.25;14.77;;;-1.10;99.90;;;;;;4992284;28;20081;-61
2022/11/19 02:18:50;;;;;;;30.45;14.63;;;-1.10;99.90;;;;;;4992736;28;20109;-56
2022/11/19 02:21:38;;;;;;;24.27;13.55;;;-1.10;99.90;;;;;;4992938;28;20508;-57
2022/11/19 02:24:16;;;;;;;29.65;14.25;;;-1.00;99.90;;;;;;4992049;28;20060;-57
2022/11/19 02:27:16;;;;;;;31.13;14.95;;;-1.00;99.90;;;;;;4992460;28;20084;-63
2022/11/19 02:29:41;;;;;;;33.33;15.27;;;-1.00;99.90;;;;;;4991855;28;20023;-62
2022/11/19 02:32:22;;;;;;;29.38;15.27;;;-1.00;99.90;;;;;;4992526;28;20084;-61
2022/11/19 02:35:11;;;;;;;27.50;14.15;;;-1.00;99.90;;;;;;4992436;28;20100;-59
2022/11/19 02:37:50;;;;;;;27.25;14.70;;;-1.00;99.90;;;;;;4992315;28;20027;-60
2022/11/19 02:40:25;;;;;;;29.33;14.95;;;-1.10;99.90;;;;;;4992721;28;20031;-64
2022/11/19 02:43:16;;;;;;;28.88;15.43;;;-1.00;99.90;;;;;;4992383;28;20037;-58
2022/11/19 02:45:48;;;;;;;28.40;13.75;;;-1.00;99.90;;;;;;4991186;28;20110;-62
2022/11/19 02:48:29;;;;;;;37.78;16.92;;;-1.00;99.90;;;;;;4992301;28;20473;-66
2022/11/19 02:50:59;;;;;;;36.40;16.92;;;-1.10;99.90;;;;;;4992324;28;20504;-63
2022/11/19 02:53:25;;;;;;;33.35;15.82;;;-1.10;99.90;;;;;;4992469;28;20034;-66
2022/11/19 03:04:30;;;;;;;29.63;14.85;;;-1.00;99.90;;;;;;4991321;28;20114;-64
2022/11/19 03:07:03;;;;;;;32.25;15.32;;;-1.00;99.90;;;;;;4978871;28;20166;-62
2022/11/19 03:09:31;;;;;;;33.58;16.40;;;-1.00;99.90;;;;;;4972525;28;20031;-64
2022/11/19 03:12:09;;;;;;;31.45;15.48;;;-0.90;99.90;;;;;;4972488;28;20030;-65
2022/11/19 03:17:56;;;;;;;26.33;14.15;;;-0.90;99.90;;;;;;4972698;28;20042;-59
2022/11/19 03:20:27;;;;;;;27.55;14.00;;;-0.80;99.90;;;;;;4972599;28;20023;-66
2022/11/19 03:23:12;;;;;;;29.02;15.18;;;-0.80;99.90;;;;;;4972449;28;20023;-60
2022/11/19 03:25:43;;;;;;;27.58;14.65;;;-0.90;99.90;;;;;;4972284;28;20090;-66
2022/11/19 03:28:18;;;;;;;27.95;15.25;;;-0.90;99.90;;;;;;4972132;28;20027;-58
2022/11/19 03:30:45;;;;;;;25.85;14.52;;;-0.90;99.90;;;;;;4954742;28;20102;-65
2022/11/19 03:33:18;;;;;;;27.30;15.30;;;-0.90;99.90;;;;;;4971907;28;20106;-65
2022/11/19 03:35:51;;;;;;;24.73;14.35;;;-0.90;99.90;;;;;;4972009;28;20031;-58
2022/11/19 03:38:31;;;;;;;28.65;14.75;;;-1.00;99.90;;;;;;4971903;28;20033;-61
2022/11/19 03:40:57;;;;;;;25.98;13.85;;;-1.00;99.90;;;;;;4970443;28;20038;-65
2022/11/19 03:43:28;;;;;;;28.42;16.23;;;-1.00;99.90;;;;;;4971929;28;20023;-66
2022/11/19 03:45:56;;;;;;;28.80;14.48;;;-1.00;99.90;;;;;;4971966;28;20034;-63
2022/11/19 03:48:24;;;;;;;27.30;14.93;;;-1.10;99.90;;;;;;4971761;28;20026;-64
2022/11/19 03:50:51;;;;;;;28.77;14.38;;;-1.10;99.90;;;;;;4954615;28;20034;-62
2022/11/19 03:53:18;;;;;;;27.48;16.05;;;-1.20;99.90;;;;;;4971702;28;20027;-64
2022/11/19 03:56:05;;;;;;;25.75;15.00;;;-1.20;99.90;;;;;;4971962;28;20047;-59
2022/11/19 03:58:40;;;;;;;27.23;15.45;;;-1.20;99.90;;;;;;4971881;28;20027;-58
2022/11/19 04:01:06;;;;;;;28.83;14.63;;;-1.30;99.90;;;;;;4971388;28;20031;-59
2022/11/19 04:03:32;;;;;;;28.10;14.82;;;-1.30;99.90;;;;;;4971627;28;20023;-58
2022/11/19 04:05:57;;;;;;;27.83;14.85;;;-1.30;99.90;;;;;;4976048;28;20023;-58
2022/11/19 04:08:23;;;;;;;27.35;14.63;;;-1.30;99.90;;;;;;4990993;28;20374;-61
2022/11/19 04:10:49;;;;;;;38.65;17.65;;;-1.30;99.90;;;;;;4990746;28;20023;-65
2022/11/19 04:13:14;;;;;;;31.50;17.98;;;-1.30;99.90;;;;;;4973163;28;20026;-61
2022/11/19 04:15:40;;;;;;;38.80;19.83;;;-1.30;99.90;;;;;;4990398;28;20673;-63
2022/11/19 04:18:05;;;;;;;42.03;18.20;;;-1.30;99.90;;;;;;4990546;28;20022;-61
2022/11/19 04:20:31;;;;;;;34.70;18.05;;;-1.40;99.90;;;;;;4990743;28;20038;-57
2022/11/19 04:22:57;;;;;;;33.28;17.23;;;-1.40;99.90;;;;;;4973117;28;20033;-55
2022/11/19 04:25:22;;;;;;;30.38;16.98;;;-1.40;99.90;;;;;;4990546;28;20038;-58
2022/11/19 04:27:48;;;;;;;33.35;17.67;;;-1.40;99.90;;;;;;4990541;28;20043;-59
2022/11/19 04:30:14;;;;;;;29.42;16.35;;;-1.40;99.90;;;;;;4973214;28;20030;-65
2022/11/19 04:32:40;;;;;;;34.17;17.53;;;-1.40;99.90;;;;;;4991232;28;20534;-58
2022/11/19 04:35:07;;;;;;;31.60;16.90;;;-1.40;99.90;;;;;;4990383;28;20048;-57
2022/11/19 04:37:32;;;;;;;35.40;18.90;;;-1.50;99.90;;;;;;4990631;28;20038;-61
2022/11/19 04:39:58;;;;;;;33.90;17.38;;;-1.60;99.90;;;;;;4990291;28;20590;-63
2022/11/19 04:42:24;;;;;;;36.10;17.33;;;-1.50;99.90;;;;;;4990233;28;20038;-58
2022/11/19 04:44:49;;;;;;;31.02;17.75;;;-1.50;99.90;;;;;;4990574;28;20124;-58
2022/11/19 04:47:15;;;;;;;35.53;18.08;;;-1.40;99.90;;;;;;4990367;28;20460;-59
2022/11/19 04:49:40;;;;;;;34.13;18.55;;;-1.40;99.90;;;;;;4990459;28;20033;-59
2022/11/19 04:52:06;;;;;;;33.78;18.95;;;-1.50;99.90;;;;;;4990321;28;20034;-65
2022/11/19 04:54:32;;;;;;;34.75;18.60;;;-1.50;99.90;;;;;;4990219;28;20414;-62
2022/11/19 04:56:58;;;;;;;38.30;20.48;;;-1.40;99.90;;;;;;4973132;28;20041;-61
2022/11/19 04:59:26;;;;;;;34.38;18.67;;;-1.40;99.90;;;;;;4990156;28;20374;-62
2022/11/19 05:01:52;;;;;;;34.03;19.27;;;-1.40;99.90;;;;;;4990122;28;20034;-59
2022/11/19 05:04:17;;;;;;;38.28;19.35;;;-1.30;99.90;;;;;;4990253;28;20034;-62
2022/11/19 05:06:43;;;;;;;38.95;19.63;;;-1.30;99.90;;;;;;4979312;28;20034;-63
2022/11/19 05:09:09;;;;;;;41.78;19.88;;;-1.40;99.90;;;;;;4970921;28;20023;-61
2022/11/19 05:11:34;;;;;;;39.78;20.20;;;-1.40;99.90;;;;;;4970760;28;20486;-62
2022/11/19 05:14:00;;;;;;;43.30;22.10;;;-1.30;99.90;;;;;;4970576;28;20057;-61
2022/11/19 05:16:25;;;;;;;48.53;23.02;;;-1.20;99.90;;;;;;4970523;28;20039;-58
2022/11/19 05:18:51;;;;;;;40.67;21.92;;;-1.20;99.90;;;;;;4971018;28;20023;-57
2022/11/19 05:21:17;;;;;;;40.90;21.42;;;-1.20;99.90;;;;;;4970883;28;20493;-56
2022/11/19 05:23:42;;;;;;;40.40;21.60;;;-1.20;99.90;;;;;;4953707;28;20069;-58
2022/11/19 05:26:08;;;;;;;41.70;21.15;;;-1.20;99.90;;;;;;4971012;28;20093;-61
2022/11/19 05:28:34;;;;;;;42.20;22.05;;;-1.30;99.90;;;;;;4974279;28;20462;-65
2022/11/19 05:30:59;;;;;;;41.58;20.55;;;-1.20;99.90;;;;;;4974462;28;20065;-62
2022/11/19 05:33:25;;;;;;;52.80;27.42;;;-1.20;99.90;;;;;;4956753;28;20047;-62
2022/11/19 05:35:50;;;;;;;70.10;32.63;;;-1.20;99.90;;;;;;4974312;28;20039;-59
2022/11/19 05:38:16;;;;;;;68.15;33.05;;;-1.20;99.90;;;;;;4956706;28;20113;-56
2022/11/19 05:40:45;;;;;;;63.22;30.65;;;-1.30;99.90;;;;;;4974024;28;20632;-59
2022/11/19 05:43:12;;;;;;;48.85;25.40;;;-1.20;99.90;;;;;;4974122;28;20476;-61
2022/11/19 05:45:37;;;;;;;42.05;23.08;;;-1.30;99.90;;;;;;4974076;28;20093;-58
2022/11/19 05:48:04;;;;;;;40.78;21.42;;;-1.30;99.90;;;;;;4974204;28;20038;-58
2022/11/19 05:50:29;;;;;;;41.30;21.83;;;-1.30;99.90;;;;;;4974101;28;20478;-60
2022/11/19 05:52:57;;;;;;;43.95;22.33;;;-1.30;99.90;;;;;;4993318;28;20033;-57
2022/11/19 05:55:23;;;;;;;44.53;22.25;;;-1.30;99.90;;;;;;4975798;28;20030;-58
2022/11/19 05:57:49;;;;;;;45.97;22.25;;;-1.30;99.90;;;;;;4993106;28;20127;-56
2022/11/19 06:00:16;;;;;;;49.70;24.98;;;-1.30;99.90;;;;;;4993316;28;20030;-57
2022/11/19 06:02:42;;;;;;;49.50;25.00;;;-1.30;99.90;;;;;;4993350;28;20030;-57
2022/11/19 06:05:08;;;;;;;56.00;28.33;;;-1.20;99.90;;;;;;4975819;28;20096;-59
2022/11/19 06:07:34;;;;;;;54.73;26.47;;;-1.30;99.90;;;;;;4975848;28;20074;-58
2022/11/19 06:09:59;;;;;;;63.58;33.33;;;-1.20;99.90;;;;;;4956263;28;20270;-58
2022/11/19 06:12:25;;;;;;;61.38;33.33;;;-1.20;99.90;;;;;;4973575;28;20027;-58
2022/11/19 06:14:51;;;;;;;58.70;31.63;;;-1.20;99.90;;;;;;4973315;28;20478;-61
2022/11/19 06:17:16;;;;;;;59.28;31.80;;;-1.10;99.90;;;;;;4973489;28;20494;-64
2022/11/19 06:19:42;;;;;;;60.20;29.95;;;-1.10;99.90;;;;;;4973440;28;20019;-66
2022/11/19 06:22:08;;;;;;;52.78;27.58;;;-1.10;99.90;;;;;;4956060;28;20510;-65
2022/11/19 06:24:34;;;;;;;50.47;28.08;;;-1.00;99.90;;;;;;4973270;28;20030;-64
2022/11/19 06:27:00;;;;;;;54.35;27.92;;;-1.00;99.90;;;;;;4973152;28;20022;-66
2022/11/19 06:29:25;;;;;;;46.88;25.17;;;-1.00;99.90;;;;;;4973406;28;20038;-68
2022/11/19 06:31:51;;;;;;;42.75;22.92;;;-1.10;99.90;;;;;;4973140;28;20054;-65
2022/11/19 06:34:17;;;;;;;34.30;19.55;;;-1.10;99.90;;;;;;4972870;28;20050;-63
2022/11/19 06:36:42;;;;;;;35.70;19.58;;;-1.20;99.90;;;;;;4972985;28;20038;-61
2022/11/19 06:39:08;;;;;;;41.00;22.88;;;-1.20;99.90;;;;;;4954809;28;20026;-58
2022/11/19 06:41:34;;;;;;;48.65;23.50;;;-1.20;99.90;;;;;;4972557;28;20031;-60
2022/11/19 06:44:00;;;;;;;63.00;29.95;;;-1.20;99.90;;;;;;4972964;28;20374;-62
2022/11/19 06:46:25;;;;;;;47.38;24.60;;;-1.20;99.90;;;;;;4973109;28;20105;-58
2022/11/19 06:48:51;;;;;;;49.08;26.33;;;-1.20;99.90;;;;;;4973006;28;20027;-55
2022/11/19 06:51:17;;;;;;;43.92;22.85;;;-1.30;99.90;;;;;;4972679;28;20035;-56
2022/11/19 06:53:42;;;;;;;45.95;25.92;;;-1.20;99.90;;;;;;4972890;28;20082;-62
2022/11/19 06:56:08;;;;;;;42.97;23.08;;;-1.10;99.90;;;;;;4972221;28;20505;-64
2022/11/19 06:58:34;;;;;;;41.50;22.40;;;-1.10;99.90;;;;;;4972686;28;20027;-61
2022/11/19 07:01:00;;;;;;;43.42;23.20;;;-1.10;99.90;;;;;;4970837;28;20032;-59
2022/11/19 07:03:26;;;;;;;44.88;24.95;;;-1.00;99.90;;;;;;4955559;28;20022;-59
2022/11/19 07:05:57;;;;;;;47.13;25.35;;;-1.00;99.90;;;;;;4972686;28;20631;-57
2022/11/19 07:08:23;;;;;;;46.42;24.92;;;-1.00;99.90;;;;;;4972496;28;20026;-58
2022/11/19 07:10:49;;;;;;;47.03;25.42;;;-1.00;99.90;;;;;;4954968;28;20382;-60
2022/11/19 07:13:15;;;;;;;43.70;24.50;;;-0.90;99.90;;;;;;4972165;28;20117;-57
2022/11/19 07:15:41;;;;;;;48.05;26.85;;;-1.00;99.90;;;;;;4972199;28;20034;-60
2022/11/19 07:18:07;;;;;;;50.92;28.35;;;-1.00;99.90;;;;;;4972143;28;20027;-59
2022/11/19 07:20:33;;;;;;;51.78;28.33;;;-1.00;99.90;;;;;;4972254;28;20044;-61
2022/11/19 07:22:59;;;;;;;53.50;29.65;;;-1.00;99.90;;;;;;4954740;28;20030;-58
2022/11/19 07:25:25;;;;;;;51.38;30.00;;;-1.00;99.90;;;;;;4972036;28;20023;-60
2022/11/19 07:27:51;;;;;;;60.83;31.15;;;-1.00;99.90;;;;;;4972507;28;20430;-63
2022/11/19 07:30:17;;;;;;;56.60;31.15;;;-1.00;99.90;;;;;;4954806;28;20085;-63
2022/11/19 07:32:43;;;;;;;54.78;29.63;;;-1.00;99.90;;;;;;4971835;28;20030;-62
2022/11/19 07:35:10;;;;;;;52.45;30.13;;;-1.00;99.90;;;;;;4990231;28;20050;-64
2022/11/19 07:37:35;;;;;;;44.70;24.30;;;-1.00;99.90;;;;;;4991280;28;20073;-57
2022/11/19 07:40:02;;;;;;;42.95;23.63;;;-1.10;99.90;;;;;;4991217;28;20407;-57
2022/11/19 07:45:12;;;;;;;39.40;23.23;;;-1.10;99.90;;;;;;4991331;28;20469;-63
2022/11/19 07:47:38;;;;;;;34.33;21.38;;;-1.00;99.90;;;;;;4991117;28;20034;-60
2022/11/19 07:50:04;;;;;;;35.78;22.20;;;-0.90;99.90;;;;;;4990675;28;20034;-56
2022/11/19 07:52:30;;;;;;;38.17;21.52;;;-0.90;99.90;;;;;;4990302;28;20037;-62
2022/11/19 07:54:56;;;;;;;37.77;21.43;;;-0.90;99.90;;;;;;4990957;28;20026;-61
2022/11/19 07:57:22;;;;;;;41.33;21.25;;;-0.90;99.90;;;;;;4990944;28;20783;-61
2022/11/19 07:59:48;;;;;;;43.75;23.48;;;-0.90;99.90;;;;;;4990947;28;20118;-61
2022/11/19 08:02:16;;;;;;;43.85;25.25;;;-0.80;99.90;;;;;;4990981;28;20551;-64
2022/11/19 08:04:42;;;;;;;58.22;34.53;;;-0.80;99.90;;;;;;4990705;28;20053;-61
2022/11/19 08:07:08;;;;;;;50.03;28.92;;;-0.70;99.90;;;;;;4977862;28;20077;-64
2022/11/19 08:09:33;;;;;;;44.63;28.08;;;-0.70;99.90;;;;;;4971287;28;20026;-65
2022/11/19 08:11:59;;;;;;;45.08;27.80;;;-0.80;99.90;;;;;;4954395;28;20518;-63
2022/11/19 08:14:25;;;;;;;40.33;26.92;;;-0.80;99.90;;;;;;4971413;28;20332;-62
2022/11/19 08:19:35;;;;;;;40.92;21.75;;;-0.80;99.90;;;;;;4971383;28;20784;-56
2022/11/19 08:22:00;;;;;;;43.08;23.52;;;-0.70;99.90;;;;;;4971216;28;20429;-55
2022/11/19 08:24:26;;;;;;;38.28;22.08;;;-0.70;99.90;;;;;;4937688;28;20027;-56
2022/11/19 08:26:52;;;;;;;39.03;22.13;;;-0.70;99.90;;;;;;4971131;28;20054;-57
2022/11/19 08:29:20;;;;;;;43.72;24.65;;;-0.70;99.90;;;;;;4971134;28;20493;-59
2022/11/19 08:31:46;;;;;;;44.90;25.42;;;-0.70;99.90;;;;;;4970866;28;20030;-59
2022/11/19 08:34:13;;;;;;;42.85;24.70;;;-0.70;99.90;;;;;;4969555;28;20047;-62
2022/11/19 08:36:38;;;;;;;40.33;22.83;;;-0.60;99.90;;;;;;4970841;28;20042;-64
2022/11/19 08:39:05;;;;;;;38.80;22.98;;;-0.60;99.90;;;;;;4970781;28;20281;-65
2022/11/19 08:44:16;;;;;;;43.83;23.80;;;-0.60;99.90;;;;;;4971441;28;20097;-62
2022/11/19 08:46:42;;;;;;;44.20;24.55;;;-0.60;99.90;;;;;;4970909;28;20039;-57
2022/11/19 08:49:08;;;;;;;43.25;23.85;;;-0.60;99.90;;;;;;4970630;28;20542;-62
2022/11/19 08:51:34;;;;;;;41.55;24.88;;;-0.60;99.90;;;;;;4971044;28;20030;-63
2022/11/19 08:53:59;;;;;;;43.90;25.52;;;-0.60;99.90;;;;;;4971032;28;20742;-59
2022/11/19 08:56:25;;;;;;;48.15;26.15;;;-0.50;99.90;;;;;;4970827;28;20069;-56
2022/11/19 08:58:52;;;;;;;43.58;26.23;;;-0.50;99.90;;;;;;4971087;28;20031;-56
2022/11/19 09:01:19;;;;;;;43.38;24.10;;;-0.50;99.90;;;;;;4971389;28;20359;-61
2022/11/19 09:03:44;;;;;;;39.85;24.90;;;-0.50;99.90;;;;;;4974851;28;20117;-56
2022/11/19 09:06:11;;;;;;;39.60;23.70;;;-0.50;99.90;;;;;;4979324;28;20735;-56
2022/11/19 09:08:37;;;;;;;44.47;23.52;;;-0.60;99.90;;;;;;4994174;28;20022;-62
2022/11/19 09:11:11;;;;;;;39.90;24.25;;;-0.50;99.90;;;;;;4992474;28;20402;-59
2022/11/19 09:13:37;;;;;;;39.70;24.50;;;-0.50;99.90;;;;;;4994029;28;20029;-57
2022/11/19 09:16:04;;;;;;;41.17;24.07;;;-0.60;99.90;;;;;;4994059;28;20087;-58
2022/11/19 09:18:31;;;;;;;39.95;23.13;;;-0.60;99.90;;;;;;4994114;28;20037;-65
2022/11/19 09:20:57;;;;;;;39.38;24.20;;;-0.70;99.90;;;;;;4994068;28;20041;-57
2022/11/19 09:23:25;;;;;;;41.27;24.20;;;-0.80;99.90;;;;;;4989324;28;20475;-60
2022/11/19 09:25:59;;;;;;;46.90;25.35;;;-0.80;99.90;;;;;;4982752;28;20417;-62
2022/11/19 09:28:26;;;;;;;40.78;23.88;;;-0.80;99.90;;;;;;4986485;28;20402;-66
2022/11/19 09:30:55;;;;;;;46.38;23.67;;;-0.70;99.90;;;;;;4983596;28;20545;-58
2022/11/19 09:33:22;;;;;;;46.00;25.90;;;-0.70;99.90;;;;;;4979540;28;20065;-57
2022/11/19 09:35:47;;;;;;;41.90;25.00;;;-0.70;99.90;;;;;;4963588;28;20032;-62
2022/11/19 09:38:13;;;;;;;49.53;27.85;;;-0.60;99.90;;;;;;4972918;28;20023;-59
2022/11/19 09:40:43;;;;;;;37.72;21.35;;;-0.60;99.90;;;;;;4971060;28;20483;-56
2022/11/19 09:43:32;;;;;;;41.78;24.02;;;-0.60;99.90;;;;;;4965066;28;20027;-66
2022/11/19 09:46:10;;;;;;;38.25;22.23;;;-0.60;99.90;;;;;;4930959;28;20023;-62
2022/11/19 09:48:39;;;;;;;42.30;22.05;;;-0.60;99.90;;;;;;4964227;28;20386;-55
2022/11/19 09:51:11;;;;;;;41.15;22.50;;;-0.60;99.90;;;;;;4962841;28;20210;-62
2022/11/19 09:53:47;;;;;;;42.95;24.25;;;-0.60;99.90;;;;;;4964296;28;20032;-58
2022/11/19 09:56:18;;;;;;;37.60;21.45;;;-0.60;99.90;;;;;;4971706;28;20045;-63
2022/11/19 09:58:44;;;;;;;40.45;23.52;;;-0.70;99.90;;;;;;4965684;28;20030;-59
2022/11/19 10:01:16;;;;;;;42.70;24.33;;;-0.60;99.90;;;;;;4964282;28;20034;-58
2022/11/19 10:03:48;;;;;;;38.58;22.95;;;-0.60;99.90;;;;;;4947095;28;20026;-63
2022/11/19 10:06:13;;;;;;;42.38;24.33;;;-0.50;99.90;;;;;;4964435;28;20031;-61
2022/11/19 10:08:42;;;;;;;42.78;24.00;;;-0.40;99.90;;;;;;4967045;28;20110;-56
2022/11/19 10:11:33;;;;;;;41.72;24.52;;;-0.30;99.90;;;;;;4962677;28;20031;-61
2022/11/19 10:13:58;;;;;;;43.72;25.27;;;-0.30;99.90;;;;;;4969679;28;20064;-57
2022/11/19 10:17:01;;;;;;;44.65;25.33;;;-0.20;99.90;;;;;;4964243;28;20463;-59
2022/11/19 10:19:55;;;;;;;43.17;24.48;;;-0.20;99.90;;;;;;4963623;28;20035;-66
2022/11/19 10:22:40;;;;;;;39.60;23.33;;;0.00;99.90;;;;;;4964022;28;20394;-57
2022/11/19 10:25:14;;;;;;;43.15;24.63;;;0.10;99.90;;;;;;4968632;28;20023;-63
2022/11/19 10:27:56;;;;;;;32.85;20.08;;;0.50;99.90;;;;;;4961997;28;20030;-59
2022/11/19 10:30:24;;;;;;;33.47;17.83;;;0.90;99.90;;;;;;4963719;28;20023;-58
2022/11/19 10:33:30;;;;;;;31.55;18.38;;;1.30;99.90;;;;;;4964048;28;20019;-62
2022/11/19 10:36:26;;;;;;;30.35;17.67;;;1.70;99.90;;;;;;4883595;29;20056;-66
2022/11/19 10:39:03;;;;;;;28.25;16.50;;;1.80;99.90;;;;;;4962740;28;20047;-60
2022/11/19 10:41:39;;;;;;;26.30;15.50;;;1.40;99.90;;;;;;4945242;28;20026;-64
2022/11/19 10:44:48;;;;;;;26.40;15.15;;;1.30;99.90;;;;;;4962440;28;20055;-66
2022/11/19 10:47:52;;;;;;;23.95;14.10;;;1.20;99.90;;;;;;4960488;28;20126;-66
2022/11/19 10:50:20;;;;;;;23.67;14.18;;;1.20;99.90;;;;;;4935378;28;20076;-64
2022/11/19 10:52:51;;;;;;;25.27;14.82;;;1.20;99.90;;;;;;4969157;28;20022;-59
2022/11/19 10:55:22;;;;;;;23.75;13.70;;;1.10;99.90;;;;;;4971744;28;20526;-60
2022/11/19 10:57:53;;;;;;;38.80;18.05;;;1.00;99.90;;;;;;4968482;28;20113;-63
2022/11/19 11:00:19;;;;;;;38.67;19.48;;;0.90;99.90;;;;;;4954220;28;20034;-58
2022/11/19 11:02:51;;;;;;;26.70;13.55;;;0.70;99.90;;;;;;4967150;28;20034;-59
2022/11/19 11:05:18;;;;;;;25.95;14.85;;;0.60;99.90;;;;;;4963570;28;20047;-59
2022/11/19 11:07:49;;;;;;;27.58;15.25;;;0.60;99.90;;;;;;4963150;28;20029;-68
2022/11/19 11:10:44;;;;;;;30.33;15.98;;;0.50;99.90;;;;;;4961851;28;20428;-64
2022/11/19 11:16:18;;;;;;;26.20;16.08;;;0.50;99.90;;;;;;4962800;28;20054;-59
2022/11/19 11:18:45;;;;;;;22.95;13.55;;;0.50;99.90;;;;;;4966375;28;20029;-65
2022/11/19 11:21:19;;;;;;;29.08;15.60;;;0.50;99.90;;;;;;4971935;28;20512;-58
2022/11/19 11:23:50;;;;;;;35.88;18.42;;;0.50;99.90;;;;;;4971736;28;20110;-64
2022/11/19 11:26:25;;;;;;;36.22;17.98;;;0.50;99.90;;;;;;4972256;28;20023;-66
2022/11/19 11:28:59;;;;;;;38.75;18.05;;;0.50;99.90;;;;;;4972310;28;20034;-60
2022/11/19 11:31:32;;;;;;;30.58;16.80;;;0.40;99.90;;;;;;4966890;28;20034;-58
2022/11/19 11:34:01;;;;;;;40.13;18.38;;;0.50;99.50;;;;;;4971130;28;20046;-58
2022/11/19 11:36:29;;;;;;;22.98;12.82;;;0.50;98.90;;;;;;4988617;28;20317;-62
2022/11/19 11:38:58;;;;;;;21.65;13.13;;;0.40;97.60;;;;;;4991418;28;20353;-69
2022/11/19 11:41:37;;;;;;;18.38;11.27;;;0.40;97.90;;;;;;4986218;28;20023;-58
2022/11/19 11:44:24;;;;;;;20.35;11.15;;;0.20;98.70;;;;;;4989821;28;20612;-56
2022/11/19 11:46:52;;;;;;;18.17;10.77;;;0.10;97.60;;;;;;4981775;28;20466;-65
2022/11/19 11:49:38;;;;;;;17.15;9.60;;;0.10;97.70;;;;;;4963738;28;20469;-65
2022/11/19 11:52:27;;;;;;;17.23;9.00;;;0.10;98.20;;;;;;4981011;28;20026;-60
2022/11/19 11:55:06;;;;;;;16.00;8.95;;;0.20;96.70;;;;;;4981300;28;20533;-64
2022/11/19 11:57:35;;;;;;;13.60;8.70;;;0.10;94.50;;;;;;4981131;28;20046;-65
2022/11/19 12:00:21;;;;;;;18.80;10.48;;;0.40;94.90;;;;;;4981071;28;20490;-58
2022/11/19 12:03:09;;;;;;;18.90;9.87;;;0.30;95.40;;;;;;4987016;28;20057;-67
2022/11/19 12:05:44;;;;;;;17.65;10.38;;;0.40;93.80;;;;;;4987463;28;20030;-62
2022/11/19 12:08:37;;;;;;;18.98;8.90;;;0.60;94.40;;;;;;4981908;28;20066;-63
2022/11/19 12:11:19;;;;;;;14.52;8.15;;;0.70;92.60;;;;;;4959726;28;20039;-62
2022/11/19 12:13:52;;;;;;;14.73;8.40;;;0.80;91.80;;;;;;4981919;28;20018;-58
2022/11/19 12:16:26;;;;;;;18.58;9.05;;;0.80;91.10;;;;;;4961650;28;20081;-66
2022/11/19 12:19:13;;;;;;;66.78;31.20;;;1.30;93.50;;;;;;4986387;28;20026;-60
2022/11/19 12:22:03;;;;;;;17.95;10.18;;;2.20;92.30;;;;;;4980067;28;20023;-65
2022/11/19 12:24:54;;;;;;;18.40;10.60;;;3.30;82.30;;;;;;4980815;28;20027;-64
2022/11/19 12:27:25;;;;;;;23.25;11.55;;;4.90;79.40;;;;;;4981647;28;20026;-58
2022/11/19 12:29:58;;;;;;;22.35;11.77;;;3.20;76.90;;;;;;4986299;28;20560;-60
2022/11/19 12:32:53;;;;;;;23.50;12.60;;;3.30;78.00;;;;;;4990009;28;20104;-58
2022/11/19 12:35:45;;;;;;;21.42;13.05;;;3.00;81.90;;;;;;4981064;28;20042;-59
2022/11/19 12:38:16;;;;;;;22.33;12.93;;;3.00;83.20;;;;;;4998173;28;20058;-60
2022/11/19 12:40:57;;;;;;;23.60;14.10;;;2.40;80.80;;;;;;4987311;28;20022;-62
2022/11/19 12:43:31;;;;;;;27.40;14.65;;;2.30;79.60;;;;;;4987052;28;20030;-62
2022/11/19 12:46:34;;;;;;;30.00;16.38;;;2.50;82.10;;;;;;4988901;28;20025;-66
2022/11/19 12:49:19;;;;;;;30.45;15.20;;;1.90;82.00;;;;;;4986763;28;20018;-61
2022/11/19 12:52:11;;;;;;;26.27;15.18;;;1.60;84.20;;;;;;4986393;28;20027;-62
2022/11/19 12:54:44;;;;;;;28.67;17.35;;;1.80;86.90;;;;;;4979275;28;20054;-67
2022/11/19 12:57:51;;;;;;;30.70;16.55;;;1.50;86.60;;;;;;4987999;28;20034;-61
2022/11/19 13:00:21;;;;;;;31.70;17.95;;;1.20;85.10;;;;;;4908557;29;20023;-56
2022/11/19 13:03:11;;;;;;;29.73;17.00;;;1.30;88.50;;;;;;4973905;28;20035;-61
2022/11/19 13:05:59;;;;;;;31.38;17.73;;;1.20;89.50;;;;;;4988296;28;20018;-60
2022/11/19 13:08:41;;;;;;;38.05;20.63;;;1.10;87.50;;;;;;4987708;28;20058;-60